الصفحة الرئيسية
METAR-TAF:

METAR-TAF

مطار :

السلفادور, السلفادور

دائرة عرض: 13-26N, خط طول: 089-03W, ارتفاع: 25 متر

مراقبة الطقس الحالي

تاريخ ووقت الإصدار 12 دقيقة قبل الساعة 18:50UTC
ريح 8 عقدة من الشمال/الشمال الشرقي, الاتجاه يتراوح بين الشمال و الشرق/الشمال الشرقي
درجة الحرارة 33°درجة مئوية
الرطوبة 44%
ضغط 1010 hPa
الرؤية 10 كم أو أكثر
الغيوم لا تقل 1500 م ولا وجود لمزنة ركامية السحاب الأسود

METAR: MSLP 171850Z 02008KT 350V060 CAVOK 33/19 Q1010 A2982 NOSIG

زمن: 13:02 (19:02 UTC)

توقعات

تاريخ ووقت الإصدار 3ساعات و 37 دقيقة قبل الساعة 15:25UTC
التوقعات صالحة من17 الساعة 18 UTC إلى 18 الساعة 18 UTC
ريح 10 عقدة من الشمال/الشمال الشرقي
الرؤية 10 كم أو أكثر
الغيوم لا تقل 1500 م ولا وجود لمزنة ركامية السحاب الأسود

TAF: MSLP 171525Z 1718/1818 03010KT CAVOK TX34/1718Z TN23/1812Z

أرصاد الطقس والتوقعات من أكثر من 4000 مطار (تقارير الطقس للمطار METAR والتنبؤ بالطقس بالمطارTAF).

المحطات المتاحة هي النقط الصفراء والحمراء على الخريطة.

حرك المؤشر فوق النقطة لمعرفة اسم المحطة.

ثم انقر لمعرفة أرصاد وتوقعات الطقس.

لتغيير الخارطة: اضغط على الأزرار الخضراء مع رمز الصليب الأسود للتكبير. على الزر الأخضر مع شرطة للتصغير، أو على الأسهم الخضراء للخرائط المجاورة.


METAR-TAF: